Bookmark and Share
Track history (hours):
 

Fedora

Last reported at 2014-Apr-13 09:21 UTC. Time now 2014-Apr-17 09:40 UTC.
Position N 34°10' W 076°31'.

Length 228 m; draft 8.3 m.

Type: Cargo ship. MMSI: 266259000.

NotesDate/timePositionNaut miles runAvg speedWind from/ knotsBaromVisibWave heightAir tempDewpointWater temp
2014-Apr-13 09:21N 34°10' W 076°31'1214.9
2014-Apr-13 08:34N 34°18' W 076°20'1514.6
2014-Apr-13 07:33N 34°27' W 076°07'28913.7
2014-Apr-12 10:30N 39°00' W 074°06'2412.3
2014-Apr-12 08:33N 39°23' W 073°60'1312.4
2014-Apr-12 07:32N 39°36' W 073°57'1212.2
2014-Apr-12 06:33N 39°48' W 073°54'3411.1
2014-Apr-12 03:32N 40°21' W 073°49'8 8.0
2014-Apr-12 02:33N 40°28' W 073°53'1111.3
2014-Apr-12 01:34N 40°36' W 074°03'4 3.7
2014-Apr-12 00:32N 40°40' W 074°04'0 0.0
2014-Apr-11 23:32N 40°40' W 074°04'0 0.0
2014-Apr-11 22:32N 40°40' W 074°04'0 0.0
2014-Apr-11 21:32N 40°40' W 074°04'0 0.0
2014-Apr-11 20:32N 40°40' W 074°04'0 0.0
2014-Apr-11 19:32N 40°40' W 074°04'0 0.0
2014-Apr-11 18:32N 40°40' W 074°04'0 0.0
2014-Apr-11 17:32N 40°40' W 074°04'0 0.1
2014-Apr-11 16:34N 40°40' W 074°04'3 3.1
2014-Apr-11 15:33N 40°40' W 074°08'2 1.5
2014-Apr-11 14:31N 40°42' W 074°09'0 0.0
2014-Apr-11 13:31N 40°42' W 074°09'0 0.0
2014-Apr-11 12:31N 40°42' W 074°09'0 0.0
2014-Apr-11 11:31N 40°42' W 074°09'0 0.0
2014-Apr-11 10:32N 40°42' W 074°09'3 3.3
2014-Apr-11 09:34N 40°39' W 074°08'6 5.6
2014-Apr-11 08:34N 40°35' W 074°02'1111.4
2014-Apr-11 07:33N 40°28' W 073°50'5 5.5
2014-Apr-11 06:33N 40°27' W 073°43'10 9.7
2014-Apr-11 05:33N 40°28' W 073°31'1414.2
2014-Apr-11 04:33N 40°29' W 073°12'1515.0
2014-Apr-11 03:34N 40°31' W 072°52'1515.0
2014-Apr-11 02:33N 40°31' W 072°33'1514.8
2014-Apr-11 01:33N 40°31' W 072°13'1514.8
2014-Apr-11 00:33N 40°32' W 071°54'1515.0
2014-Apr-10 23:33N 40°32' W 071°34'1515.0
2014-Apr-10 22:33N 40°33' W 071°14'1514.6
2014-Apr-10 21:33N 40°33' W 070°55'1312.9
2014-Apr-10 20:33N 40°33' W 070°38'9 9.4
2014-Apr-10 19:33N 40°33' W 070°26'9 9.4
2014-Apr-10 18:33N 40°33' W 070°13'10 9.6
2014-Apr-10 17:33N 40°34' W 070°01'10 9.7
2014-Apr-10 16:34N 40°34' W 069°48'1212.0
2014-Apr-10 15:32N 40°34' W 069°32'360 9.2
2014-Apr-09 00:29N 44°37' W 063°31'0 0.0
2014-Apr-08 23:32N 44°37' W 063°31'0 0.0
2014-Apr-08 22:32N 44°37' W 063°31'0 0.0
2014-Apr-08 21:29N 44°37' W 063°31'0 0.0
2014-Apr-08 20:32N 44°37' W 063°31'0 0.0
2014-Apr-08 19:32N 44°37' W 063°31'0 0.0
2014-Apr-08 18:20N 44°37' W 063°31'0 0.0
2014-Apr-08 17:23N 44°37' W 063°31'0 0.0
2014-Apr-08 16:23N 44°37' W 063°31'0 0.0
2014-Apr-08 15:26N 44°37' W 063°31'0 0.0
2014-Apr-08 14:26N 44°37' W 063°31'0 0.0
2014-Apr-08 13:26N 44°37' W 063°31'0 0.0
2014-Apr-08 12:14N 44°37' W 063°31'0 0.0
2014-Apr-08 11:29N 44°37' W 063°31'0 0.0
2014-Apr-08 10:29N 44°37' W 063°31'0 0.0
2014-Apr-08 09:32N 44°37' W 063°31'0 0.0
2014-Apr-08 08:32N 44°37' W 063°31'0 0.0
2014-Apr-08 07:32N 44°37' W 063°31'0 0.0
2014-Apr-08 06:32N 44°37' W 063°31'0 0.0
2014-Apr-08 05:32N 44°37' W 063°31'0 0.0
2014-Apr-08 04:23N 44°37' W 063°31'0 0.0
2014-Apr-08 03:32N 44°37' W 063°31'0 0.0
2014-Apr-08 02:23N 44°37' W 063°31'0 0.0
2014-Apr-08 01:26N 44°37' W 063°31'0 0.0
2014-Apr-08 00:26N 44°37' W 063°31'0 0.0
2014-Apr-07 23:26N 44°37' W 063°31'0 0.0
2014-Apr-07 22:29N 44°37' W 063°31'0 0.0
2014-Apr-07 21:29N 44°37' W 063°31'0 0.0
2014-Apr-07 20:29N 44°37' W 063°31'0 0.0
2014-Apr-07 19:32N 44°37' W 063°31'0 0.0
2014-Apr-07 16:29N 44°37' W 063°31'0 0.3
2014-Apr-07 15:33N 44°37' W 063°31'6 5.6
2014-Apr-07 14:33N 44°32' W 063°31'6 6.2
2014-Apr-07 13:33N 44°28' W 063°24'17 7.4
2014-Apr-07 11:17N 44°26' W 063°01'2 3.3
2014-Apr-07 10:33N 44°26' W 063°04'  

Dump ship's entire track history

sailing weather and tide predictions

Fedora — SLKU — position and weather